createdAt,value
2022-12-18T00:01:28.751Z,23.58
2022-12-18T00:03:57.596Z,24.13
2022-12-18T00:06:26.180Z,24.30
2022-12-18T00:08:52.880Z,24.20
2022-12-18T00:11:21.700Z,22.27
2022-12-18T00:13:49.076Z,25.10
2022-12-18T00:16:21.189Z,24.35
2022-12-18T00:18:48.936Z,21.90
2022-12-18T00:21:15.939Z,21.75
2022-12-18T00:23:44.374Z,22.23
2022-12-18T00:26:20.633Z,21.67
2022-12-18T00:28:47.825Z,23.75
2022-12-18T00:31:17.034Z,21.40
2022-12-18T00:33:43.867Z,22.52
2022-12-18T00:36:14.329Z,22.30
2022-12-18T00:38:42.140Z,23.50
2022-12-18T00:41:10.356Z,21.55
2022-12-18T00:43:38.627Z,21.27
2022-12-18T00:46:06.044Z,21.85
2022-12-18T00:48:33.550Z,21.15
2022-12-18T00:51:00.153Z,19.95
2022-12-18T00:53:26.841Z,22.65
2022-12-18T00:55:53.398Z,22.55
2022-12-18T00:58:19.986Z,20.95
2022-12-18T01:00:46.789Z,24.25
2022-12-18T01:03:15.123Z,21.85
2022-12-18T01:05:42.966Z,24.33
2022-12-18T01:08:10.264Z,23.65
2022-12-18T01:10:37.139Z,24.30
2022-12-18T01:13:03.815Z,24.73
2022-12-18T01:15:30.457Z,21.48
2022-12-18T01:17:57.070Z,23.33
2022-12-18T01:20:23.707Z,23.83
2022-12-18T01:22:50.337Z,23.00
2022-12-18T01:25:17.045Z,21.70
2022-12-18T01:27:43.730Z,24.85
2022-12-18T01:30:10.878Z,23.83
2022-12-18T01:32:37.499Z,23.35
2022-12-18T01:35:04.949Z,22.52
2022-12-18T01:37:31.575Z,23.30
2022-12-18T01:39:58.203Z,22.98
2022-12-18T01:42:26.471Z,23.08
2022-12-18T01:45:01.079Z,23.05
2022-12-18T01:47:39.241Z,21.67
2022-12-18T01:50:13.908Z,22.75
2022-12-18T01:52:47.701Z,23.83
2022-12-18T01:55:17.461Z,24.00
2022-12-18T01:57:44.130Z,25.05
2022-12-18T02:00:15.924Z,21.95
2022-12-18T02:02:44.468Z,25.30
2022-12-18T02:05:13.801Z,23.27
2022-12-18T02:08:04.787Z,23.55
2022-12-18T02:11:03.372Z,24.50
2022-12-18T02:13:38.223Z,21.75
2022-12-18T02:16:20.706Z,22.65
2022-12-18T02:18:51.964Z,22.17
2022-12-18T02:21:33.345Z,19.60
2022-12-18T02:24:27.853Z,22.80
2022-12-18T02:27:05.944Z,22.73
2022-12-18T02:29:45.914Z,21.75
2022-12-18T02:32:17.687Z,22.00
2022-12-18T02:34:45.297Z,23.10
2022-12-18T02:37:16.937Z,22.23
2022-12-18T02:39:47.058Z,22.95
2022-12-18T02:42:14.067Z,23.15
2022-12-18T02:44:48.006Z,20.42
2022-12-18T02:47:17.700Z,22.05
2022-12-18T02:50:03.231Z,22.02
2022-12-18T02:52:48.664Z,22.67
2022-12-18T02:55:29.592Z,22.45
2022-12-18T02:57:57.598Z,23.52
2022-12-18T03:00:32.680Z,21.73
2022-12-18T03:03:20.125Z,21.20
2022-12-18T03:05:54.889Z,22.33
2022-12-18T03:08:31.040Z,22.23
2022-12-18T03:11:12.555Z,21.73
2022-12-18T03:13:42.222Z,19.33
2022-12-18T03:16:13.199Z,24.40
2022-12-18T03:18:47.083Z,20.25
2022-12-18T03:21:18.420Z,20.92
2022-12-18T03:23:50.529Z,21.52
2022-12-18T03:26:20.819Z,21.50
2022-12-18T03:28:54.211Z,21.20
2022-12-18T03:31:24.145Z,21.48
2022-12-18T03:33:56.642Z,22.42
2022-12-18T03:36:24.115Z,22.13
2022-12-18T03:38:51.129Z,22.48
2022-12-18T03:41:33.358Z,21.60
2022-12-18T03:44:29.300Z,21.85
2022-12-18T03:47:05.007Z,20.30
2022-12-18T03:49:43.939Z,20.83
2022-12-18T03:52:25.226Z,20.50
2022-12-18T03:54:53.076Z,19.40
2022-12-18T03:57:22.526Z,20.58
2022-12-18T03:59:56.578Z,22.50
2022-12-18T04:02:25.612Z,19.40
2022-12-18T04:04:59.174Z,20.80
2022-12-18T04:07:26.165Z,21.42
2022-12-18T04:09:57.226Z,20.67
2022-12-18T04:12:27.929Z,20.33
2022-12-18T04:14:54.522Z,22.23
2022-12-18T04:17:21.262Z,21.33
2022-12-18T04:19:47.958Z,19.77
2022-12-18T04:22:14.614Z,19.27
2022-12-18T04:24:41.235Z,19.38
2022-12-18T04:27:08.167Z,19.30
2022-12-18T04:29:34.822Z,18.33
2022-12-18T04:32:01.550Z,17.02
2022-12-18T04:34:28.374Z,18.77
2022-12-18T04:36:54.960Z,19.90
2022-12-18T04:39:21.621Z,18.38
2022-12-18T04:41:48.338Z,17.65
2022-12-18T04:44:15.407Z,18.10
2022-12-18T04:46:42.489Z,17.58
2022-12-18T04:49:11.301Z,17.38
2022-12-18T04:51:38.246Z,17.30
2022-12-18T04:54:05.041Z,16.42
2022-12-18T04:56:32.667Z,18.23
2022-12-18T04:58:59.314Z,17.20
2022-12-18T05:01:30.935Z,17.15
2022-12-18T05:04:01.309Z,15.88
2022-12-18T05:06:27.978Z,16.50
2022-12-18T05:08:54.586Z,17.58
2022-12-18T05:11:21.183Z,16.50
2022-12-18T05:13:47.784Z,15.63
2022-12-18T05:16:15.353Z,16.75
2022-12-18T05:18:42.534Z,16.13
2022-12-18T05:21:09.430Z,16.60
2022-12-18T05:23:37.023Z,15.88
2022-12-18T05:26:06.753Z,15.20
2022-12-18T05:28:35.640Z,16.00
2022-12-18T05:31:04.019Z,14.88
2022-12-18T05:33:33.907Z,14.05
2022-12-18T05:36:02.904Z,14.63
2022-12-18T05:38:30.671Z,14.13
2022-12-18T05:40:58.194Z,14.75
2022-12-18T05:43:26.162Z,13.38
2022-12-18T05:45:53.766Z,13.77
2022-12-18T05:48:21.051Z,13.75
2022-12-18T05:50:48.895Z,14.52
2022-12-18T05:53:20.183Z,12.77
2022-12-18T05:55:48.067Z,13.13
2022-12-18T05:58:15.600Z,12.88
2022-12-18T06:00:45.232Z,13.57
2022-12-18T06:03:13.149Z,13.00
2022-12-18T06:05:45.627Z,13.27
2022-12-18T06:08:14.013Z,13.98
2022-12-18T06:10:41.252Z,13.60
2022-12-18T06:13:08.710Z,13.90
2022-12-18T06:15:38.426Z,13.18
2022-12-18T06:18:05.096Z,14.07
2022-12-18T06:20:33.586Z,13.77
2022-12-18T06:23:00.785Z,13.57
2022-12-18T06:25:27.393Z,12.05
2022-12-18T06:27:54.049Z,11.73
2022-12-18T06:30:21.218Z,12.57
2022-12-18T06:32:53.133Z,10.80
2022-12-18T06:35:22.977Z,11.77
2022-12-18T06:37:49.701Z,11.73
2022-12-18T06:40:16.578Z,12.50
2022-12-18T06:42:43.198Z,12.13
2022-12-18T06:45:10.309Z,12.43
2022-12-18T06:47:36.924Z,12.15
2022-12-18T06:50:03.921Z,11.43
2022-12-18T06:52:33.235Z,12.55
2022-12-18T06:55:00.129Z,11.23
2022-12-18T06:57:26.709Z,12.48
2022-12-18T06:59:53.267Z,11.35
2022-12-18T07:02:20.006Z,11.52
2022-12-18T07:04:46.690Z,13.27
2022-12-18T07:07:13.296Z,12.00
2022-12-18T07:09:39.945Z,11.63
2022-12-18T07:12:07.726Z,11.63
2022-12-18T07:14:34.534Z,10.98
2022-12-18T07:17:01.323Z,11.70
2022-12-18T07:19:28.217Z,10.80
2022-12-18T07:21:55.952Z,10.88
2022-12-18T07:24:22.642Z,10.75
2022-12-18T07:26:49.378Z,11.15
2022-12-18T07:29:16.136Z,11.02
2022-12-18T07:31:43.160Z,11.05
2022-12-18T07:34:13.911Z,11.40
2022-12-18T07:36:40.518Z,10.10
2022-12-18T07:39:07.191Z,11.82
2022-12-18T07:41:33.804Z,11.45
2022-12-18T07:44:00.365Z,11.35
2022-12-18T07:46:26.953Z,11.15
2022-12-18T07:48:53.627Z,12.45
2022-12-18T07:51:20.509Z,11.48
2022-12-18T07:53:49.392Z,11.18
2022-12-18T07:58:56.655Z,11.40
2022-12-18T08:01:23.477Z,12.93
2022-12-18T08:03:51.854Z,10.75
2022-12-18T08:06:19.381Z,11.15
2022-12-18T08:08:49.184Z,11.48
2022-12-18T08:11:16.609Z,11.10
2022-12-18T08:13:43.423Z,11.75
2022-12-18T08:16:10.388Z,12.23
2022-12-18T08:18:38.040Z,10.55
2022-12-18T08:21:12.781Z,11.40
2022-12-18T08:23:43.136Z,11.23
2022-12-18T08:26:14.410Z,11.55
2022-12-18T08:28:41.781Z,12.25
2022-12-18T08:31:09.460Z,11.75
2022-12-18T08:33:38.764Z,11.20
2022-12-18T08:36:06.551Z,10.88
2022-12-18T08:38:34.064Z,10.85
2022-12-18T08:41:05.606Z,11.20
2022-12-18T08:43:50.604Z,11.20
2022-12-18T08:46:18.764Z,11.60
2022-12-18T08:48:45.507Z,12.13
2022-12-18T08:51:12.158Z,11.77
2022-12-18T08:53:39.625Z,14.10
2022-12-18T08:56:07.178Z,14.23
2022-12-18T08:58:33.737Z,13.88
2022-12-18T09:01:05.642Z,13.50
2022-12-18T09:03:33.509Z,13.00
2022-12-18T09:06:00.448Z,13.63
2022-12-18T09:08:27.458Z,12.75
2022-12-18T09:10:54.358Z,12.90
2022-12-18T09:13:21.291Z,11.13
2022-12-18T09:15:51.326Z,11.90
2022-12-18T09:18:20.137Z,12.02
2022-12-18T09:20:47.502Z,11.50
2022-12-18T09:23:14.502Z,11.95
2022-12-18T09:25:41.682Z,10.23
2022-12-18T09:28:15.633Z,12.52
2022-12-18T09:30:50.092Z,11.65
2022-12-18T09:33:17.951Z,10.80
2022-12-18T09:35:46.089Z,10.98
2022-12-18T09:38:15.231Z,11.32
2022-12-18T09:40:53.737Z,10.45
2022-12-18T09:43:30.977Z,11.25
2022-12-18T09:46:06.287Z,10.98
2022-12-18T09:48:37.426Z,10.82
2022-12-18T09:51:12.889Z,10.83
2022-12-18T09:53:42.366Z,11.18
2022-12-18T09:56:17.352Z,10.90
2022-12-18T09:58:56.578Z,10.55
2022-12-18T10:01:24.876Z,10.40
2022-12-18T10:03:54.906Z,11.65
2022-12-18T10:06:32.909Z,10.20
2022-12-18T10:09:05.710Z,11.18
2022-12-18T10:11:57.042Z,12.32
2022-12-18T10:14:37.291Z,10.50
2022-12-18T10:17:13.895Z,12.32
2022-12-18T10:19:50.184Z,10.75
2022-12-18T10:22:28.356Z,10.60
2022-12-18T10:25:20.815Z,10.93
2022-12-18T10:27:47.752Z,11.27
2022-12-18T10:30:17.307Z,10.75
2022-12-18T10:32:44.154Z,11.48
2022-12-18T10:35:23.087Z,11.13
2022-12-18T10:38:06.274Z,9.35
2022-12-18T10:40:36.847Z,11.50
2022-12-18T10:43:15.451Z,11.20
2022-12-18T10:45:42.726Z,10.90
2022-12-18T10:48:22.855Z,9.32
2022-12-18T10:53:39.897Z,9.85
2022-12-18T10:56:07.722Z,10.65
2022-12-18T10:58:35.534Z,10.10
2022-12-18T11:01:14.481Z,10.73
2022-12-18T11:03:45.395Z,10.45
2022-12-18T11:06:17.716Z,11.10
2022-12-18T11:08:57.678Z,9.40
2022-12-18T11:11:25.338Z,10.23
2022-12-18T11:14:05.165Z,9.63
2022-12-18T11:16:57.927Z,9.88
2022-12-18T11:19:34.673Z,9.90
2022-12-18T11:22:04.969Z,10.07
2022-12-18T11:24:36.709Z,9.93
2022-12-18T11:27:06.077Z,8.63
2022-12-18T11:29:36.083Z,9.65
2022-12-18T11:32:29.350Z,10.13
2022-12-18T11:35:43.910Z,8.75
2022-12-18T11:38:26.243Z,10.23
2022-12-18T11:41:17.084Z,8.43
2022-12-18T11:43:55.113Z,9.52
2022-12-18T11:46:34.728Z,9.50
2022-12-18T11:49:23.375Z,9.00
2022-12-18T11:51:53.241Z,9.93
2022-12-18T11:54:19.895Z,8.52
2022-12-18T11:57:01.384Z,9.43
2022-12-18T11:59:48.042Z,7.35
2022-12-18T12:02:23.259Z,9.65
2022-12-18T12:04:57.855Z,9.43
2022-12-18T12:07:52.425Z,9.50
2022-12-18T12:10:34.034Z,9.18
2022-12-18T12:13:25.561Z,8.57
2022-12-18T12:16:17.612Z,9.33
2022-12-18T12:19:06.139Z,9.20
2022-12-18T12:21:42.540Z,8.90
2022-12-18T12:24:25.362Z,9.82
2022-12-18T12:27:26.579Z,13.48
2022-12-18T12:30:00.691Z,9.65
2022-12-18T12:32:48.916Z,9.00
2022-12-18T12:36:00.745Z,9.52
2022-12-18T12:38:29.538Z,8.27
2022-12-18T12:41:04.920Z,9.82
2022-12-18T12:46:37.691Z,8.77
2022-12-18T12:49:10.889Z,9.20
2022-12-18T12:51:41.063Z,9.98
2022-12-18T12:54:18.368Z,8.98
2022-12-18T12:57:10.408Z,9.73
2022-12-18T13:02:52.504Z,9.55
2022-12-18T13:05:26.850Z,9.85
2022-12-18T13:08:07.644Z,9.70
2022-12-18T13:10:40.993Z,9.00
2022-12-18T13:13:11.516Z,9.30
2022-12-18T13:15:51.190Z,9.38
2022-12-18T13:18:23.406Z,9.35
2022-12-18T13:20:58.499Z,10.27
2022-12-18T13:23:35.181Z,9.23
2022-12-18T13:26:10.914Z,9.30
2022-12-18T13:28:46.903Z,10.02
2022-12-18T13:31:14.655Z,10.15
2022-12-18T13:34:24.047Z,10.60
2022-12-18T13:36:34.650Z,10.35
2022-12-18T13:39:21.240Z,9.88
2022-12-18T13:42:50.697Z,10.20
2022-12-18T13:45:41.133Z,9.32
2022-12-18T13:48:17.221Z,10.23
2022-12-18T13:50:48.895Z,9.88
2022-12-18T13:53:25.768Z,10.82
2022-12-18T13:55:52.853Z,10.45
2022-12-18T13:58:19.903Z,9.80
2022-12-18T14:00:46.576Z,11.00
2022-12-18T14:03:22.635Z,9.32
2022-12-18T14:06:09.842Z,9.32
2022-12-18T14:08:41.405Z,10.20
2022-12-18T14:11:18.847Z,10.32
2022-12-18T14:13:47.669Z,10.27
2022-12-18T14:16:17.575Z,9.68
2022-12-18T14:18:53.260Z,10.10
2022-12-18T14:21:24.666Z,9.98
2022-12-18T14:24:14.196Z,10.60
2022-12-18T14:26:41.957Z,10.02
2022-12-18T14:29:29.477Z,10.90
2022-12-18T14:32:11.766Z,11.07
2022-12-18T14:34:41.839Z,10.45
2022-12-18T14:37:12.736Z,9.93
2022-12-18T14:39:39.737Z,10.13
2022-12-18T14:42:06.373Z,10.20
2022-12-18T14:44:44.255Z,10.60
2022-12-18T14:47:18.307Z,10.50
2022-12-18T14:49:45.415Z,10.85
2022-12-18T14:52:30.139Z,11.45
2022-12-18T14:54:56.749Z,10.75
2022-12-18T14:57:36.851Z,11.85
2022-12-18T15:00:12.698Z,11.32
2022-12-18T15:02:39.651Z,11.30
2022-12-18T15:05:25.594Z,10.35
2022-12-18T15:07:54.442Z,12.20
2022-12-18T15:10:24.051Z,11.20
2022-12-18T15:12:57.679Z,9.98
2022-12-18T15:15:37.019Z,10.70
2022-12-18T15:18:09.681Z,11.43
2022-12-18T15:20:46.310Z,10.80
2022-12-18T15:23:20.846Z,11.27
2022-12-18T15:26:07.004Z,10.48
2022-12-18T15:28:39.578Z,11.27
2022-12-18T15:31:22.350Z,10.82
2022-12-18T15:33:55.116Z,11.02
2022-12-18T15:36:26.298Z,10.48
2022-12-18T15:38:55.489Z,10.55
2022-12-18T15:41:26.416Z,11.98
2022-12-18T15:43:53.926Z,13.10
2022-12-18T15:46:25.809Z,11.20
2022-12-18T15:48:59.608Z,12.18
2022-12-18T15:51:34.448Z,11.60
2022-12-18T15:54:04.787Z,11.48
2022-12-18T15:56:50.451Z,12.95
2022-12-18T15:59:21.616Z,10.68
2022-12-18T16:01:51.292Z,12.25
2022-12-18T16:04:22.910Z,13.68
2022-12-18T16:09:37.504Z,10.90
2022-12-18T16:12:04.665Z,14.02
2022-12-18T16:14:32.645Z,12.05
2022-12-18T16:17:06.871Z,12.45
2022-12-18T16:19:33.503Z,11.73
2022-12-18T16:22:00.209Z,12.55
2022-12-18T16:24:31.918Z,12.23
2022-12-18T16:27:00.832Z,12.45
2022-12-18T16:29:29.031Z,12.13
2022-12-18T16:31:56.812Z,12.88
2022-12-18T16:34:29.466Z,13.65
2022-12-18T16:37:05.631Z,12.52
2022-12-18T16:39:35.141Z,11.95
2022-12-18T16:42:05.666Z,10.18
2022-12-18T16:44:33.790Z,12.75
2022-12-18T16:47:02.699Z,13.13
2022-12-18T16:49:29.982Z,12.63
2022-12-18T16:51:56.711Z,13.27
2022-12-18T16:54:23.952Z,12.05
2022-12-18T16:56:52.178Z,13.18
2022-12-18T16:59:19.426Z,12.68
2022-12-18T17:01:47.392Z,13.27
2022-12-18T17:04:15.062Z,13.63
2022-12-18T17:06:44.099Z,12.95
2022-12-18T17:09:20.038Z,13.63
2022-12-18T17:11:46.726Z,13.05
2022-12-18T17:14:18.766Z,12.23
2022-12-18T17:19:17.310Z,12.60
2022-12-18T17:21:45.223Z,11.30
2022-12-18T17:24:12.204Z,12.73
2022-12-18T17:26:38.950Z,14.65
2022-12-18T17:29:05.684Z,14.52
2022-12-18T17:31:32.798Z,11.13
2022-12-18T17:34:01.086Z,13.35
2022-12-18T17:36:32.239Z,13.35
2022-12-18T17:39:00.971Z,12.67
2022-12-18T17:41:28.819Z,14.05
2022-12-18T17:43:57.486Z,13.75
2022-12-18T17:46:25.805Z,11.82
2022-12-18T17:48:55.234Z,14.20
2022-12-18T17:51:21.864Z,12.50
2022-12-18T17:53:48.763Z,14.05
2022-12-18T17:56:17.875Z,13.60
2022-12-18T17:58:45.199Z,12.77
2022-12-18T18:01:17.866Z,12.93
2022-12-18T18:03:45.277Z,15.23
2022-12-18T18:06:14.934Z,14.93
2022-12-18T18:08:41.592Z,13.85
2022-12-18T18:11:36.005Z,13.77
2022-12-18T18:14:05.628Z,11.88
2022-12-18T18:16:36.145Z,15.15
2022-12-18T18:19:06.022Z,14.93
2022-12-18T18:21:33.190Z,14.60
2022-12-18T18:24:03.081Z,14.52
2022-12-18T18:26:32.129Z,13.68
2022-12-18T18:29:00.008Z,12.18
2022-12-18T18:31:30.813Z,13.32
2022-12-18T18:33:57.974Z,15.15
2022-12-18T18:36:24.993Z,14.38
2022-12-18T18:38:52.044Z,14.45
2022-12-18T18:41:19.617Z,15.40
2022-12-18T18:43:46.297Z,16.25
2022-12-18T18:46:15.002Z,14.60
2022-12-18T18:48:42.473Z,12.35
2022-12-18T18:51:21.103Z,12.07
2022-12-18T18:53:49.788Z,15.20
2022-12-18T18:59:05.285Z,9.65
2022-12-18T19:01:32.336Z,14.00
2022-12-18T19:03:59.112Z,10.52
2022-12-18T19:06:27.932Z,14.15
2022-12-18T19:08:55.853Z,13.68
2022-12-18T19:11:41.995Z,12.85
2022-12-18T19:14:11.824Z,13.88
2022-12-18T19:16:38.781Z,13.90
2022-12-18T19:19:06.210Z,13.35
2022-12-18T19:21:34.649Z,13.73
2022-12-18T19:24:02.469Z,12.25
2022-12-18T19:26:29.390Z,15.35
2022-12-18T19:29:07.796Z,14.18
2022-12-18T19:31:36.683Z,14.05
2022-12-18T19:34:06.562Z,15.20
2022-12-18T19:36:34.311Z,12.00
2022-12-18T19:39:01.757Z,16.48
2022-12-18T19:41:31.310Z,15.93
2022-12-18T19:43:59.878Z,16.80
2022-12-18T19:46:27.636Z,14.30
2022-12-18T19:48:54.238Z,15.80
2022-12-18T19:51:24.373Z,16.17
2022-12-18T19:53:56.617Z,17.25
2022-12-18T19:56:27.183Z,16.20
2022-12-18T19:58:54.925Z,16.75
2022-12-18T20:01:23.650Z,15.52
2022-12-18T20:03:52.685Z,17.42
2022-12-18T20:06:36.683Z,17.00
2022-12-18T20:09:07.205Z,14.90
2022-12-18T20:11:41.910Z,14.50
2022-12-18T20:14:10.658Z,16.15
2022-12-18T20:16:37.670Z,16.13
2022-12-18T20:19:05.086Z,13.27
2022-12-18T20:21:31.933Z,14.98
2022-12-18T20:23:59.983Z,16.83
2022-12-18T20:26:26.977Z,17.50
2022-12-18T20:28:55.132Z,16.05
2022-12-18T20:31:22.315Z,15.77
2022-12-18T20:33:51.032Z,17.08
2022-12-18T20:36:25.976Z,18.27
2022-12-18T20:38:57.154Z,17.63
2022-12-18T20:43:54.256Z,16.00
2022-12-18T20:46:21.017Z,11.07
2022-12-18T20:48:48.210Z,16.23
2022-12-18T20:51:17.776Z,17.30
2022-12-18T20:53:45.740Z,17.63
2022-12-18T20:56:22.026Z,16.13
2022-12-18T20:58:50.297Z,16.48
2022-12-18T21:01:20.842Z,17.92
2022-12-18T21:03:48.242Z,16.42
2022-12-18T21:06:17.048Z,18.60
2022-12-18T21:08:44.302Z,13.15
2022-12-18T21:11:39.695Z,17.83
2022-12-18T21:14:16.594Z,18.30
2022-12-18T21:16:43.914Z,15.57
2022-12-18T21:19:12.819Z,19.42
2022-12-18T21:21:40.637Z,17.60
2022-12-18T21:24:08.256Z,13.93
2022-12-18T21:26:36.526Z,14.38
2022-12-18T21:29:10.404Z,19.25
2022-12-18T21:31:38.376Z,18.50
2022-12-18T21:34:07.129Z,17.48
2022-12-18T21:36:34.621Z,19.23
2022-12-18T21:39:01.437Z,17.70
2022-12-18T21:41:46.590Z,17.50
2022-12-18T21:44:18.048Z,17.83
2022-12-18T21:46:52.811Z,16.42
2022-12-18T21:49:21.981Z,18.85
2022-12-18T21:51:51.113Z,18.88
2022-12-18T21:54:18.860Z,19.50
2022-12-18T21:57:02.190Z,17.90
2022-12-18T21:59:34.451Z,18.30
2022-12-18T22:02:04.403Z,17.90
2022-12-18T22:04:31.142Z,18.55
2022-12-18T22:06:57.928Z,18.15
2022-12-18T22:09:25.282Z,18.77
2022-12-18T22:11:52.253Z,15.30
2022-12-18T22:14:19.244Z,14.52
2022-12-18T22:16:45.906Z,18.92
2022-12-18T22:19:13.411Z,17.38
2022-12-18T22:21:43.969Z,15.85
2022-12-18T22:24:21.866Z,17.58
2022-12-18T22:26:50.091Z,18.05
2022-12-18T22:29:38.165Z,21.13
2022-12-18T22:32:06.431Z,17.35
2022-12-18T22:34:36.591Z,18.63
2022-12-18T22:37:03.694Z,17.50
2022-12-18T22:39:31.290Z,17.30
2022-12-18T22:41:58.447Z,18.58
2022-12-18T22:44:25.207Z,18.38
2022-12-18T22:47:06.487Z,19.33
2022-12-18T22:49:34.796Z,17.15
2022-12-18T22:52:06.624Z,17.02
2022-12-18T22:54:33.296Z,18.10
2022-12-18T22:56:59.891Z,17.30
2022-12-18T22:59:26.507Z,19.35
2022-12-18T23:01:58.544Z,18.70
2022-12-18T23:04:34.272Z,16.83
2022-12-18T23:07:05.925Z,20.10
2022-12-18T23:09:32.916Z,15.80
2022-12-18T23:12:00.080Z,19.15
2022-12-18T23:14:27.522Z,17.75
2022-12-18T23:16:54.098Z,18.63
2022-12-18T23:19:21.578Z,19.05
2022-12-18T23:21:50.827Z,17.33
2022-12-18T23:24:17.463Z,18.75
2022-12-18T23:26:44.162Z,19.40
2022-12-18T23:29:10.791Z,18.25
2022-12-18T23:31:39.085Z,18.77
2022-12-18T23:34:07.171Z,19.52
2022-12-18T23:36:46.362Z,20.27
2022-12-18T23:39:28.800Z,14.25
2022-12-18T23:42:00.183Z,17.05
2022-12-18T23:44:27.418Z,19.67
2022-12-18T23:46:54.709Z,20.55
2022-12-18T23:49:21.428Z,19.88
2022-12-18T23:51:48.517Z,17.90
2022-12-18T23:54:15.184Z,19.73
2022-12-18T23:56:41.835Z,19.27
2022-12-18T23:59:08.503Z,20.88
